This is the latest recevied weather packets stored in our database for station/object K1BES. If no packets are shown the sender has not sent any weather packets the latest 10 day(s).
| Time | Temp. | Humidity | Pressure | Rain* | Wind** | Luminosity | Snow |
|---|---|---|---|---|---|---|---|
| 1777409306 | 26.67° C | 73% | 1019.2 hPa | 0 mm | - | 79 W/m² | - |
| 1777409002 | 27.22° C | 73% | 1019.3 hPa | 0 mm | - | 353 W/m² | - |
| 1777408699 | 27.22° C | 73% | 1019.6 hPa | 0 mm | - | 499 W/m² | - |
| 1777408395 | 26.67° C | 73% | 1019.6 hPa | 0 mm | - | 75 W/m² | - |
| 1777408095 | 26.67° C | 72% | 1019.7 hPa | 0 mm | - | 72 W/m² | - |
| 1777407791 | 26.67° C | 72% | 1019.6 hPa | 0 mm | - | 74 W/m² | - |
| 1777407486 | 27.22° C | 71% | 1019.7 hPa | 0 mm | - | 74 W/m² | - |
| 1777407181 | 27.22° C | 71% | 1019.8 hPa | 0 mm | - | 76 W/m² | - |
| 1777406876 | 27.78° C | 68% | 1019.7 hPa | 0 mm | - | 162 W/m² | - |
| 1777406572 | 28.33° C | 67% | 1019.6 hPa | 0 mm | - | 760 W/m² | - |
| 1777406268 | 28.33° C | 68% | 1019.6 hPa | 0 mm | - | 780 W/m² | - |
| 1777405967 | 28.33° C | 69% | 1019.8 hPa | 0 mm | - | 797 W/m² | - |
| 1777405663 | 27.78° C | 69% | 1020 hPa | 0 mm | - | 813 W/m² | - |
| 1777405361 | 28.33° C | 69% | 1020.2 hPa | 0 mm | - | 828 W/m² | - |
| 1777405056 | 28.33° C | 68% | 1020.1 hPa | 0 mm | - | 846 W/m² | - |
| 1777404751 | 28.89° C | 66% | 1020.4 hPa | 0 mm | - | 862 W/m² | - |
| 1777404447 | 27.78° C | 68% | 1019.9 hPa | 0 mm | - | 871 W/m² | - |
| 1777404144 | 28.89° C | 66% | 1020.1 hPa | 0 mm | - | 887 W/m² | - |
| 1777403840 | 28.33° C | 66% | 1019.9 hPa | 0 mm | - | 904 W/m² | - |
| 1777403535 | 28.33° C | 66% | 1020.2 hPa | 0 mm | - | 915 W/m² | - |
| 1777403235 | 28.33° C | 65% | 1020 hPa | 0 mm | - | 931 W/m² | - |
| 1777402930 | 28.33° C | 65% | 1020.1 hPa | 0 mm | - | 942 W/m² | - |
| 1777402625 | 28.89° C | 61% | 1020.2 hPa | 0 mm | - | 953 W/m² | - |
| 1777402324 | 28.89° C | 63% | 1020.4 hPa | 0 mm | - | 962 W/m² | - |
| 1777402023 | 28.89° C | 64% | 1020.4 hPa | 0 mm | - | 973 W/m² | - |
* Rain latest hour (hover to see other rain measurements)
** Current wind speed in m/s (hover to see current wind gust speed)